Ship Status Report: callsign BAREU11

sailwx.info

Track history (hours):
 
Tides and Currents Weather Stations Pressure Air Temp Water Temp Dewpoint Dewpoint Depression Visibility Wind Speed Wind Dir Waves Ship Positions

Callsign BAREU11 (name unknown)

Last reported at 2014-Nov-23 06:00 UTC. Time now 2014-Nov-23 07:32 UTC.
Position S 04°00' W 081°36'.

Barometer 1012.8 mb

Date/timePositionNaut miles runAvg speedWind from/ knotsBaromVisibWave heightAir tempDewpointWater temp
2014-Nov-23 06:00S 04°00' W 081°36'1919.0 1012.8
2014-Nov-23 05:00S 04°18' W 081°30'1818.0 1013.7
2014-Nov-23 04:00S 04°36' W 081°30'1818.0 1014.6
2014-Nov-23 03:00S 04°54' W 081°30'1818.0 1014.9
2014-Nov-23 02:00S 05°12' W 081°30'1212.0 1014.6
2014-Nov-23 01:00S 05°24' W 081°30'1818.0 1013.7
2014-Nov-23 00:00S 05°42' W 081°30'1818.0 1012.8
2014-Nov-22 23:00S 06°00' W 081°30'2221.6 1012.0
2014-Nov-22 22:00S 06°18' W 081°18'1716.9 1012.0
2014-Nov-22 21:00S 06°30' W 081°06'1919.0 1012.0
2014-Nov-22 20:00S 06°48' W 081°00'1716.9 1012.8
2014-Nov-22 19:00S 07°00' W 080°48'1313.4 1013.7
2014-Nov-22 18:00S 07°12' W 080°42'2221.6 1014.4
2014-Nov-22 17:00S 07°30' W 080°30'1313.4 1015.2
2014-Nov-22 16:00S 07°42' W 080°24'2221.6 1015.9
2014-Nov-22 15:00S 08°00' W 080°12'1716.9 1016.3
2014-Nov-22 14:00S 08°12' W 080°00'1919.0 1016.1
2014-Nov-22 13:00S 08°30' W 079°54'2221.6 1015.5
2014-Nov-22 12:00S 08°48' W 079°42'1716.9 1015.0
2014-Nov-22 11:00S 09°00' W 079°30'1918.9 1014.4
2014-Nov-22 10:00S 09°18' W 079°24'1716.9 1013.9
2014-Nov-22 09:00S 09°30' W 079°12'2221.5 1013.4
2014-Nov-22 08:00S 09°48' W 079°00'1313.4 1013.3
2014-Nov-22 07:00S 10°00' W 078°54'3517.4 1013.8
2014-Nov-22 05:00S 10°30' W 078°36'2221.5 1014.7
2014-Nov-22 04:00S 10°48' W 078°24'2221.5 1015.3
2014-Nov-22 03:00S 11°06' W 078°12'1313.4 1015.4
2014-Nov-22 02:00S 11°18' W 078°06'2121.3 1015.5
2014-Nov-22 01:00S 11°30' W 077°48'1716.8 1014.9
2014-Nov-22 00:00S 11°42' W 077°36'1716.8 1014.3
2014-Nov-21 23:00S 11°54' W 077°24'1313.2 1013.8
2014-Nov-21 22:00S 12°00' W 077°12'6 0.4 1013.7
2014-Nov-21 07:00S 12°00' W 077°06'6 1.2 1012.6
2014-Nov-21 02:00S 12°00' W 077°12'0 0.0 1014.7
2014-Nov-20 20:00S 12°00' W 077°12'8 8.4 1013.8
2014-Nov-20 19:00S 12°06' W 077°18'6 6.0 1014.4
2014-Nov-20 18:00S 12°12' W 077°18'1212.0 1015.1
2014-Nov-20 17:00S 12°24' W 077°18'1313.4 1015.6
2014-Nov-20 16:00S 12°36' W 077°12'1313.4 1015.9
2014-Nov-20 15:00S 12°48' W 077°06'1212.0 1016.1
2014-Nov-20 14:00S 13°00' W 077°06'1918.9 1016.0
2014-Nov-20 13:00S 13°18' W 077°00'1212.0 1016.0
2014-Nov-20 12:00S 13°30' W 077°00'1313.3 1015.4
2014-Nov-20 11:00S 13°42' W 076°54'1212.0 1014.9
2014-Nov-20 10:00S 13°54' W 076°54'1313.3 1014.3
2014-Nov-20 09:00S 14°06' W 076°48'1818.0 1014.1
2014-Nov-20 08:00S 14°24' W 076°48'1313.3 1014.2
2014-Nov-20 07:00S 14°36' W 076°42'1313.3 1014.7
2014-Nov-20 06:00S 14°48' W 076°36'1212.0 1015.6
2014-Nov-20 05:00S 15°00' W 076°36'1313.3 1016.3
2014-Nov-20 04:00S 15°12' W 076°30'1212.0 1017.1
2014-Nov-20 03:00S 15°24' W 076°30'1313.3 1017.7
2014-Nov-20 02:00S 15°36' W 076°24'1818.0 1017.5
2014-Nov-20 01:00S 15°54' W 076°24'1313.3 1017.3
2014-Nov-20 00:00S 16°06' W 076°18'1313.3 1016.8
2014-Nov-19 23:00S 16°18' W 076°12'1818.0 1016.1
2014-Nov-19 22:00S 16°36' W 076°12'1918.9 1015.6
2014-Nov-19 21:00S 16°54' W 076°06'1918.9 1015.6
2014-Nov-19 20:00S 17°12' W 076°00'1313.3 1016.0
2014-Nov-19 19:00S 17°24' W 075°54'1818.0 1016.6
2014-Nov-19 18:00S 17°42' W 075°54'1918.9 1017.1
2014-Nov-19 17:00S 18°00' W 075°48'1918.9 1017.6
2014-Nov-19 16:00S 18°18' W 075°42'1918.9 1018.1
2014-Nov-19 15:00S 18°36' W 075°36'1818.0 1018.3
2014-Nov-19 14:00S 18°54' W 075°36'1313.3 1018.6
2014-Nov-19 13:00S 19°06' W 075°30'1918.9 1018.5
2014-Nov-19 12:00S 19°24' W 075°24'1918.9 1018.5
2014-Nov-19 11:00S 19°42' W 075°18'1818.0 1018.0
2014-Nov-19 10:00S 20°00' W 075°18'1918.9 1017.2
2014-Nov-19 09:00S 20°18' W 075°12'1313.3 1017.1
2014-Nov-19 08:00S 20°30' W 075°06'1918.9 1017.1
2014-Nov-19 07:00S 20°48' W 075°00'1818.0 1017.3
2014-Nov-19 06:00S 21°06' W 075°00'1918.8 1017.8
2014-Nov-19 05:00S 21°24' W 074°54'1313.2 1018.5
2014-Nov-19 04:00S 21°36' W 074°48'1918.8 1018.9
2014-Nov-19 03:00S 21°54' W 074°42'1918.8 1019.3
2014-Nov-19 02:00S 22°12' W 074°36'1818.0 1018.8
2014-Nov-19 01:00S 22°30' W 074°36'1918.8 1018.1
2014-Nov-19 00:00S 22°48' W 074°30'1918.8 1017.5
2014-Nov-18 23:00S 23°06' W 074°24'1313.2 1016.9
2014-Nov-18 22:00S 23°18' W 074°18'1818.0 1016.5
2014-Nov-18 21:00S 23°36' W 074°18'1918.8 1016.2
2014-Nov-18 20:00S 23°54' W 074°12'1918.8 1016.5
2014-Nov-18 19:00S 24°12' W 074°06'1918.8 1016.7
2014-Nov-18 18:00S 24°30' W 074°00'1818.0 1017.0
2014-Nov-18 17:00S 24°48' W 074°00'1313.2 1017.5
2014-Nov-18 16:00S 25°00' W 073°54'1918.8 1017.6
2014-Nov-18 15:00S 25°18' W 073°48'1918.8 1017.9
2014-Nov-18 14:00S 25°36' W 073°42'1918.8 1017.9
2014-Nov-18 13:00S 25°54' W 073°36'1818.0 1018.0
2014-Nov-18 12:00S 26°12' W 073°36'1918.8 1017.6
2014-Nov-18 11:00S 26°30' W 073°30'1313.1 1017.3
2014-Nov-18 10:00S 26°42' W 073°24'1918.8 1016.7
2014-Nov-18 09:00S 27°00' W 073°18'1818.0 1016.2
2014-Nov-18 08:00S 27°18' W 073°18'1918.8 1015.7
2014-Nov-18 07:00S 27°36' W 073°12'1313.1 1015.7
2014-Nov-18 06:00S 27°48' W 073°06'1918.8 1015.9
2014-Nov-18 05:00S 28°06' W 073°00'1918.8 1016.2
2014-Nov-18 04:00S 28°24' W 072°54'1818.0 1016.5
2014-Nov-18 03:00S 28°42' W 072°54'1918.8 1016.4
2014-Nov-18 02:00S 29°00' W 072°48'1918.7 1016.2
2014-Nov-18 01:00S 29°18' W 072°42'1313.1 1015.7
2014-Nov-18 00:00S 29°30' W 072°36'1918.7 1015.2
2014-Nov-17 23:00S 29°48' W 072°30'1818.0 1014.6
2014-Nov-17 22:00S 30°06' W 072°30'1918.7 1014.3
2014-Nov-17 21:00S 30°24' W 072°24'1918.7 1014.5
2014-Nov-17 20:00S 30°42' W 072°18'1818.0 1015.0
2014-Nov-17 19:00S 31°00' W 072°18'1313.1 1015.3
2014-Nov-17 18:00S 31°12' W 072°12'1918.7 1016.1
2014-Nov-17 17:00S 31°30' W 072°06'1918.7 1016.6
2014-Nov-17 16:00S 31°48' W 072°00'3015.2 1017.2
2014-Nov-17 14:00S 32°18' W 071°54'1918.7 1016.7
2014-Nov-17 13:00S 32°36' W 071°48'18 6.0 1016.4
2014-Nov-17 10:00S 32°54' W 071°48'12 2.0 1014.0
2014-Nov-17 04:00S 33°00' W 071°36'0 0.0 1013.9
2014-Nov-16 10:00S 33°00' W 071°36'0 0.0 1016.8
2014-Nov-16 02:00S 33°00' W 071°36'0 0.0 1018.2
2014-Nov-15 23:00S 33°00' W 071°36'0 0.0 1018.3
2014-Nov-15 17:00S 33°00' W 071°36'6 6.0 1020.0
2014-Nov-15 16:00S 32°54' W 071°36'1313.0 1020.4
2014-Nov-15 15:00S 32°42' W 071°42'1918.7 1020.6
2014-Nov-15 14:00S 32°24' W 071°48'1918.7 1020.6
2014-Nov-15 13:00S 32°06' W 071°54'1313.0 1020.4
2014-Nov-15 12:00S 31°54' W 072°00'1818.0 1020.1
2014-Nov-15 11:00S 31°36' W 072°00'1918.7 1019.7
2014-Nov-15 10:00S 31°18' W 072°06'1918.7 1019.2
2014-Nov-15 09:00S 31°00' W 072°12'1918.7 1018.8
2014-Nov-15 08:00S 30°42' W 072°18'1918.7 1018.4
2014-Nov-15 07:00S 30°24' W 072°24'1212.0 1018.6
2014-Nov-15 06:00S 30°12' W 072°24'1918.7 1018.5
2014-Nov-15 05:00S 29°54' W 072°30'1918.7 1018.7
2014-Nov-15 04:00S 29°36' W 072°36'1918.7 1018.9
2014-Nov-15 03:00S 29°18' W 072°42'1918.7 1018.5
2014-Nov-15 02:00S 29°00' W 072°48'1212.0 1018.1
2014-Nov-15 01:00S 28°48' W 072°48'1918.8 1017.6
2014-Nov-15 00:00S 28°30' W 072°54'1918.8 1017.5
2014-Nov-14 23:00S 28°12' W 073°00'1918.8 1017.1
2014-Nov-14 22:00S 27°54' W 073°06'1818.0 1016.7
2014-Nov-14 21:00S 27°36' W 073°06'8 8.0 1016.3
2014-Nov-14 20:00S 27°30' W 073°12'1212.0 1017.3
2014-Nov-14 19:00S 27°18' W 073°12'1918.8 1017.6
2014-Nov-14 18:00S 27°00' W 073°18'1313.1 1017.8
2014-Nov-14 17:00S 26°48' W 073°24'1918.8 1018.1
2014-Nov-14 16:00S 26°30' W 073°30'1818.0 1018.5
2014-Nov-14 15:00S 26°12' W 073°30'1918.8 1018.4
2014-Nov-14 14:00S 25°54' W 073°36'1918.8 1018.4
2014-Nov-14 13:00S 25°36' W 073°42'1313.2 1018.0
2014-Nov-14 12:00S 25°24' W 073°48'1818.0 1017.7
2014-Nov-14 11:00S 25°06' W 073°48'1918.8 1016.9
2014-Nov-14 10:00S 24°48' W 073°54'1313.2 1016.2
2014-Nov-14 09:00S 24°36' W 074°00'1918.8 1015.7
2014-Nov-14 08:00S 24°18' W 074°06'1918.8 1015.5
2014-Nov-14 07:00S 24°00' W 074°12'1918.8 1015.6
2014-Nov-14 06:00S 23°42' W 074°18'1818.0 1016.2
2014-Nov-14 05:00S 23°24' W 074°18'1313.2 1017.0
2014-Nov-14 04:00S 23°12' W 074°24'1918.8 1017.7
2014-Nov-14 03:00S 22°54' W 074°30'1818.0 1018.0
2014-Nov-14 02:00S 22°36' W 074°30'1918.8 1017.7
2014-Nov-14 01:00S 22°18' W 074°36'1918.8 1017.0
2014-Nov-14 00:00S 22°00' W 074°42'1313.2 1016.5
2014-Nov-13 23:00S 21°48' W 074°48'1918.8 1016.2
2014-Nov-13 22:00S 21°30' W 074°54'1918.8 1015.8
2014-Nov-13 21:00S 21°12' W 075°00'1818.0 1015.4
2014-Nov-13 20:00S 20°54' W 075°00'1918.9 1015.6
2014-Nov-13 19:00S 20°36' W 075°06'1313.3 1015.8
2014-Nov-13 18:00S 20°24' W 075°12'1918.9 1016.2
2014-Nov-13 17:00S 20°06' W 075°18'1818.0 1016.3
2014-Nov-13 16:00S 19°48' W 075°18'1918.9 1017.2
2014-Nov-13 15:00S 19°30' W 075°24'1313.3 1017.4
2014-Nov-13 14:00S 19°18' W 075°30'1212.0 1017.8
2014-Nov-13 13:00S 19°06' W 075°30'1918.9 1017.0
2014-Nov-13 12:00S 18°48' W 075°36'1918.9 1016.5
2014-Nov-13 11:00S 18°30' W 075°42'1818.0 1015.9
2014-Nov-13 10:00S 18°12' W 075°42'1313.3 1015.0
2014-Nov-13 09:00S 18°00' W 075°48'1918.9 1014.5
2014-Nov-13 08:00S 17°42' W 075°54'1918.9 1014.5
2014-Nov-13 07:00S 17°24' W 076°00'1818.0 1014.8
2014-Nov-13 06:00S 17°06' W 076°00'   1015.3
Track history (hours):
 
Tides and Currents Weather Stations Pressure Air Temp Water Temp Dewpoint Dewpoint Depression Visibility Wind Speed Wind Dir Waves Ship Positions

Callsign BAREU11 (name unknown)

Last reported at 2014-Nov-23 06:00 UTC. Time now 2014-Nov-23 07:32 UTC.
Position S 04°00' W 081°36'.

Barometer 1012.8 mb

Date/timePositionNaut miles runAvg speedWind from/ knotsBaromVisibWave heightAir tempDewpointWater temp
2014-Nov-23 06:00S 04°00' W 081°36'1919.0 1012.8
2014-Nov-23 05:00S 04°18' W 081°30'1818.0 1013.7
2014-Nov-23 04:00S 04°36' W 081°30'1818.0 1014.6
2014-Nov-23 03:00S 04°54' W 081°30'1818.0 1014.9
2014-Nov-23 02:00S 05°12' W 081°30'1212.0 1014.6
2014-Nov-23 01:00S 05°24' W 081°30'1818.0 1013.7
2014-Nov-23 00:00S 05°42' W 081°30'1818.0 1012.8
2014-Nov-22 23:00S 06°00' W 081°30'2221.6 1012.0
2014-Nov-22 22:00S 06°18' W 081°18'1716.9 1012.0
2014-Nov-22 21:00S 06°30' W 081°06'1919.0 1012.0
2014-Nov-22 20:00S 06°48' W 081°00'1716.9 1012.8
2014-Nov-22 19:00S 07°00' W 080°48'1313.4 1013.7
2014-Nov-22 18:00S 07°12' W 080°42'2221.6 1014.4
2014-Nov-22 17:00S 07°30' W 080°30'1313.4 1015.2
2014-Nov-22 16:00S 07°42' W 080°24'2221.6 1015.9
2014-Nov-22 15:00S 08°00' W 080°12'1716.9 1016.3
2014-Nov-22 14:00S 08°12' W 080°00'1919.0 1016.1
2014-Nov-22 13:00S 08°30' W 079°54'2221.6 1015.5
2014-Nov-22 12:00S 08°48' W 079°42'1716.9 1015.0
2014-Nov-22 11:00S 09°00' W 079°30'1918.9 1014.4
2014-Nov-22 10:00S 09°18' W 079°24'1716.9 1013.9
2014-Nov-22 09:00S 09°30' W 079°12'2221.5 1013.4
2014-Nov-22 08:00S 09°48' W 079°00'1313.4 1013.3
2014-Nov-22 07:00S 10°00' W 078°54'3517.4 1013.8
2014-Nov-22 05:00S 10°30' W 078°36'2221.5 1014.7
2014-Nov-22 04:00S 10°48' W 078°24'2221.5 1015.3
2014-Nov-22 03:00S 11°06' W 078°12'1313.4 1015.4
2014-Nov-22 02:00S 11°18' W 078°06'2121.3 1015.5
2014-Nov-22 01:00S 11°30' W 077°48'1716.8 1014.9
2014-Nov-22 00:00S 11°42' W 077°36'1716.8 1014.3
2014-Nov-21 23:00S 11°54' W 077°24'1313.2 1013.8
2014-Nov-21 22:00S 12°00' W 077°12'6 0.4 1013.7
2014-Nov-21 07:00S 12°00' W 077°06'6 1.2 1012.6
2014-Nov-21 02:00S 12°00' W 077°12'0 0.0 1014.7
2014-Nov-20 20:00S 12°00' W 077°12'8 8.4 1013.8
2014-Nov-20 19:00S 12°06' W 077°18'6 6.0 1014.4
2014-Nov-20 18:00S 12°12' W 077°18'1212.0 1015.1
2014-Nov-20 17:00S 12°24' W 077°18'1313.4 1015.6
2014-Nov-20 16:00S 12°36' W 077°12'1313.4 1015.9
2014-Nov-20 15:00S 12°48' W 077°06'1212.0 1016.1
2014-Nov-20 14:00S 13°00' W 077°06'1918.9 1016.0
2014-Nov-20 13:00S 13°18' W 077°00'1212.0 1016.0
2014-Nov-20 12:00S 13°30' W 077°00'1313.3 1015.4
2014-Nov-20 11:00S 13°42' W 076°54'1212.0 1014.9
2014-Nov-20 10:00S 13°54' W 076°54'1313.3 1014.3
2014-Nov-20 09:00S 14°06' W 076°48'1818.0 1014.1
2014-Nov-20 08:00S 14°24' W 076°48'1313.3 1014.2
2014-Nov-20 07:00S 14°36' W 076°42'1313.3 1014.7
2014-Nov-20 06:00S 14°48' W 076°36'1212.0 1015.6
2014-Nov-20 05:00S 15°00' W 076°36'1313.3 1016.3
2014-Nov-20 04:00S 15°12' W 076°30'1212.0 1017.1
2014-Nov-20 03:00S 15°24' W 076°30'1313.3 1017.7
2014-Nov-20 02:00S 15°36' W 076°24'1818.0 1017.5
2014-Nov-20 01:00S 15°54' W 076°24'1313.3 1017.3
2014-Nov-20 00:00S 16°06' W 076°18'1313.3 1016.8
2014-Nov-19 23:00S 16°18' W 076°12'1818.0 1016.1
2014-Nov-19 22:00S 16°36' W 076°12'1918.9 1015.6
2014-Nov-19 21:00S 16°54' W 076°06'1918.9 1015.6
2014-Nov-19 20:00S 17°12' W 076°00'1313.3 1016.0
2014-Nov-19 19:00S 17°24' W 075°54'1818.0 1016.6
2014-Nov-19 18:00S 17°42' W 075°54'1918.9 1017.1
2014-Nov-19 17:00S 18°00' W 075°48'1918.9 1017.6
2014-Nov-19 16:00S 18°18' W 075°42'1918.9 1018.1
2014-Nov-19 15:00S 18°36' W 075°36'1818.0 1018.3
2014-Nov-19 14:00S 18°54' W 075°36'1313.3 1018.6
2014-Nov-19 13:00S 19°06' W 075°30'1918.9 1018.5
2014-Nov-19 12:00S 19°24' W 075°24'1918.9 1018.5
2014-Nov-19 11:00S 19°42' W 075°18'1818.0 1018.0
2014-Nov-19 10:00S 20°00' W 075°18'1918.9 1017.2
2014-Nov-19 09:00S 20°18' W 075°12'1313.3 1017.1
2014-Nov-19 08:00S 20°30' W 075°06'1918.9 1017.1
2014-Nov-19 07:00S 20°48' W 075°00'1818.0 1017.3
2014-Nov-19 06:00S 21°06' W 075°00'1918.8 1017.8
2014-Nov-19 05:00S 21°24' W 074°54'1313.2 1018.5
2014-Nov-19 04:00S 21°36' W 074°48'1918.8 1018.9
2014-Nov-19 03:00S 21°54' W 074°42'1918.8 1019.3
2014-Nov-19 02:00S 22°12' W 074°36'1818.0 1018.8
2014-Nov-19 01:00S 22°30' W 074°36'1918.8 1018.1
2014-Nov-19 00:00S 22°48' W 074°30'1918.8 1017.5
2014-Nov-18 23:00S 23°06' W 074°24'1313.2 1016.9
2014-Nov-18 22:00S 23°18' W 074°18'1818.0 1016.5
2014-Nov-18 21:00S 23°36' W 074°18'1918.8 1016.2
2014-Nov-18 20:00S 23°54' W 074°12'1918.8 1016.5
2014-Nov-18 19:00S 24°12' W 074°06'1918.8 1016.7
2014-Nov-18 18:00S 24°30' W 074°00'1818.0 1017.0
2014-Nov-18 17:00S 24°48' W 074°00'1313.2 1017.5
2014-Nov-18 16:00S 25°00' W 073°54'1918.8 1017.6
2014-Nov-18 15:00S 25°18' W 073°48'1918.8 1017.9
2014-Nov-18 14:00S 25°36' W 073°42'1918.8 1017.9
2014-Nov-18 13:00S 25°54' W 073°36'1818.0 1018.0
2014-Nov-18 12:00S 26°12' W 073°36'1918.8 1017.6
2014-Nov-18 11:00S 26°30' W 073°30'1313.1 1017.3
2014-Nov-18 10:00S 26°42' W 073°24'1918.8 1016.7
2014-Nov-18 09:00S 27°00' W 073°18'1818.0 1016.2
2014-Nov-18 08:00S 27°18' W 073°18'1918.8 1015.7
2014-Nov-18 07:00S 27°36' W 073°12'1313.1 1015.7
2014-Nov-18 06:00S 27°48' W 073°06'1918.8 1015.9
2014-Nov-18 05:00S 28°06' W 073°00'1918.8 1016.2
2014-Nov-18 04:00S 28°24' W 072°54'1818.0 1016.5
2014-Nov-18 03:00S 28°42' W 072°54'1918.8 1016.4
2014-Nov-18 02:00S 29°00' W 072°48'1918.7 1016.2
2014-Nov-18 01:00S 29°18' W 072°42'1313.1 1015.7
2014-Nov-18 00:00S 29°30' W 072°36'1918.7 1015.2
2014-Nov-17 23:00S 29°48' W 072°30'1818.0 1014.6
2014-Nov-17 22:00S 30°06' W 072°30'1918.7 1014.3
2014-Nov-17 21:00S 30°24' W 072°24'1918.7 1014.5
2014-Nov-17 20:00S 30°42' W 072°18'1818.0 1015.0
2014-Nov-17 19:00S 31°00' W 072°18'1313.1 1015.3
2014-Nov-17 18:00S 31°12' W 072°12'1918.7 1016.1
2014-Nov-17 17:00S 31°30' W 072°06'1918.7 1016.6
2014-Nov-17 16:00S 31°48' W 072°00'3015.2 1017.2
2014-Nov-17 14:00S 32°18' W 071°54'1918.7 1016.7
2014-Nov-17 13:00S 32°36' W 071°48'18 6.0 1016.4
2014-Nov-17 10:00S 32°54' W 071°48'12 2.0 1014.0
2014-Nov-17 04:00S 33°00' W 071°36'0 0.0 1013.9
2014-Nov-16 10:00S 33°00' W 071°36'0 0.0 1016.8
2014-Nov-16 02:00S 33°00' W 071°36'0 0.0 1018.2
2014-Nov-15 23:00S 33°00' W 071°36'0 0.0 1018.3
2014-Nov-15 17:00S 33°00' W 071°36'6 6.0 1020.0
2014-Nov-15 16:00S 32°54' W 071°36'1313.0 1020.4
2014-Nov-15 15:00S 32°42' W 071°42'1918.7 1020.6
2014-Nov-15 14:00S 32°24' W 071°48'1918.7 1020.6
2014-Nov-15 13:00S 32°06' W 071°54'1313.0 1020.4
2014-Nov-15 12:00S 31°54' W 072°00'1818.0 1020.1
2014-Nov-15 11:00S 31°36' W 072°00'1918.7 1019.7
2014-Nov-15 10:00S 31°18' W 072°06'1918.7 1019.2
2014-Nov-15 09:00S 31°00' W 072°12'1918.7 1018.8
2014-Nov-15 08:00S 30°42' W 072°18'1918.7 1018.4
2014-Nov-15 07:00S 30°24' W 072°24'1212.0 1018.6
2014-Nov-15 06:00S 30°12' W 072°24'1918.7 1018.5
2014-Nov-15 05:00S 29°54' W 072°30'1918.7 1018.7
2014-Nov-15 04:00S 29°36' W 072°36'1918.7 1018.9
2014-Nov-15 03:00S 29°18' W 072°42'1918.7 1018.5
2014-Nov-15 02:00S 29°00' W 072°48'1212.0 1018.1
2014-Nov-15 01:00S 28°48' W 072°48'1918.8 1017.6
2014-Nov-15 00:00S 28°30' W 072°54'1918.8 1017.5
2014-Nov-14 23:00S 28°12' W 073°00'1918.8 1017.1
2014-Nov-14 22:00S 27°54' W 073°06'1818.0 1016.7
2014-Nov-14 21:00S 27°36' W 073°06'8 8.0 1016.3
2014-Nov-14 20:00S 27°30' W 073°12'1212.0 1017.3
2014-Nov-14 19:00S 27°18' W 073°12'1918.8 1017.6
2014-Nov-14 18:00S 27°00' W 073°18'1313.1 1017.8
2014-Nov-14 17:00S 26°48' W 073°24'1918.8 1018.1
2014-Nov-14 16:00S 26°30' W 073°30'1818.0 1018.5
2014-Nov-14 15:00S 26°12' W 073°30'1918.8 1018.4
2014-Nov-14 14:00S 25°54' W 073°36'1918.8 1018.4
2014-Nov-14 13:00S 25°36' W 073°42'1313.2 1018.0
2014-Nov-14 12:00S 25°24' W 073°48'1818.0 1017.7
2014-Nov-14 11:00S 25°06' W 073°48'1918.8 1016.9
2014-Nov-14 10:00S 24°48' W 073°54'1313.2 1016.2
2014-Nov-14 09:00S 24°36' W 074°00'1918.8 1015.7
2014-Nov-14 08:00S 24°18' W 074°06'1918.8 1015.5
2014-Nov-14 07:00S 24°00' W 074°12'1918.8 1015.6
2014-Nov-14 06:00S 23°42' W 074°18'1818.0 1016.2
2014-Nov-14 05:00S 23°24' W 074°18'1313.2 1017.0
2014-Nov-14 04:00S 23°12' W 074°24'1918.8 1017.7
2014-Nov-14 03:00S 22°54' W 074°30'1818.0 1018.0
2014-Nov-14 02:00S 22°36' W 074°30'1918.8 1017.7
2014-Nov-14 01:00S 22°18' W 074°36'1918.8 1017.0
2014-Nov-14 00:00S 22°00' W 074°42'1313.2 1016.5
2014-Nov-13 23:00S 21°48' W 074°48'1918.8 1016.2
2014-Nov-13 22:00S 21°30' W 074°54'1918.8 1015.8
2014-Nov-13 21:00S 21°12' W 075°00'1818.0 1015.4
2014-Nov-13 20:00S 20°54' W 075°00'1918.9 1015.6
2014-Nov-13 19:00S 20°36' W 075°06'1313.3 1015.8
2014-Nov-13 18:00S 20°24' W 075°12'1918.9 1016.2
2014-Nov-13 17:00S 20°06' W 075°18'1818.0 1016.3
2014-Nov-13 16:00S 19°48' W 075°18'1918.9 1017.2
2014-Nov-13 15:00S 19°30' W 075°24'1313.3 1017.4
2014-Nov-13 14:00S 19°18' W 075°30'1212.0 1017.8
2014-Nov-13 13:00S 19°06' W 075°30'1918.9 1017.0
2014-Nov-13 12:00S 18°48' W 075°36'1918.9 1016.5
2014-Nov-13 11:00S 18°30' W 075°42'1818.0 1015.9
2014-Nov-13 10:00S 18°12' W 075°42'1313.3 1015.0
2014-Nov-13 09:00S 18°00' W 075°48'1918.9 1014.5
2014-Nov-13 08:00S 17°42' W 075°54'1918.9 1014.5
2014-Nov-13 07:00S 17°24' W 076°00'1818.0 1014.8
2014-Nov-13 06:00S 17°06' W 076°00'   1015.3

Dump ship's entire track history